createdAt,value
2023-04-24T00:00:38.414Z,10.80
2023-04-24T00:01:38.425Z,10.78
2023-04-24T00:02:38.581Z,10.80
2023-04-24T00:03:38.553Z,10.80
2023-04-24T00:04:38.481Z,10.80
2023-04-24T00:05:38.377Z,10.78
2023-04-24T00:06:38.342Z,10.76
2023-04-24T00:07:38.336Z,10.80
2023-04-24T00:08:38.308Z,10.78
2023-04-24T00:09:38.317Z,10.81
2023-04-24T00:10:38.288Z,10.81
2023-04-24T00:11:38.275Z,10.77
2023-04-24T00:12:38.257Z,10.74
2023-04-24T00:13:38.256Z,10.71
2023-04-24T00:14:38.247Z,10.71
2023-04-24T00:15:38.253Z,10.68
2023-04-24T00:16:38.242Z,10.68
2023-04-24T00:17:38.238Z,10.68
2023-04-24T00:18:38.191Z,10.66
2023-04-24T00:19:38.154Z,10.66
2023-04-24T00:20:38.139Z,10.70
2023-04-24T00:21:38.141Z,10.73
2023-04-24T00:22:38.138Z,10.74
2023-04-24T00:23:38.109Z,10.77
2023-04-24T00:24:38.129Z,10.76
2023-04-24T00:25:38.093Z,10.76
2023-04-24T00:26:38.093Z,10.74
2023-04-24T00:27:38.100Z,10.76
2023-04-24T00:28:38.060Z,10.76
2023-04-24T00:29:38.030Z,10.80
2023-04-24T00:30:38.043Z,10.81
2023-04-24T00:31:38.047Z,10.80
2023-04-24T00:32:38.023Z,10.81
2023-04-24T00:33:37.978Z,10.83
2023-04-24T00:34:37.977Z,10.78
2023-04-24T00:35:37.944Z,10.74
2023-04-24T00:36:37.945Z,10.73
2023-04-24T00:37:37.924Z,10.74
2023-04-24T00:38:37.932Z,10.74
2023-04-24T00:39:37.912Z,10.68
2023-04-24T00:40:37.905Z,10.63
2023-04-24T00:41:37.885Z,10.62
2023-04-24T00:42:37.883Z,10.65
2023-04-24T00:43:37.862Z,10.63
2023-04-24T00:44:37.854Z,10.62
2023-04-24T00:45:37.843Z,10.62
2023-04-24T00:46:37.946Z,10.62
2023-04-24T00:47:37.828Z,10.62
2023-04-24T00:48:37.784Z,10.60
2023-04-24T00:49:37.775Z,10.62
2023-04-24T00:50:37.769Z,10.59
2023-04-24T00:51:37.762Z,10.58
2023-04-24T00:52:37.760Z,10.56
2023-04-24T00:53:37.716Z,10.55
2023-04-24T00:54:37.705Z,10.56
2023-04-24T00:55:37.703Z,10.55
2023-04-24T00:56:37.697Z,10.56
2023-04-24T00:57:37.671Z,10.56
2023-04-24T00:58:37.655Z,10.55
2023-04-24T00:59:37.640Z,10.53
2023-04-24T01:00:37.656Z,10.53
2023-04-24T01:01:37.691Z,10.55
2023-04-24T01:02:37.686Z,10.53
2023-04-24T01:03:37.723Z,10.55
2023-04-24T01:04:37.764Z,10.59
2023-04-24T01:05:37.578Z,10.59
2023-04-24T01:06:37.560Z,10.59
2023-04-24T01:07:37.540Z,10.59
2023-04-24T01:08:37.542Z,10.62
2023-04-24T01:09:37.528Z,10.65
2023-04-24T01:10:37.510Z,10.60
2023-04-24T01:11:37.495Z,10.58
2023-04-24T01:12:37.466Z,10.55
2023-04-24T01:13:37.458Z,10.53
2023-04-24T01:14:37.472Z,10.52
2023-04-24T01:15:37.473Z,10.51
2023-04-24T01:16:37.415Z,10.44
2023-04-24T01:17:37.448Z,10.43
2023-04-24T01:18:37.404Z,10.42
2023-04-24T01:19:37.375Z,10.43
2023-04-24T01:20:37.379Z,10.43
2023-04-24T01:21:37.359Z,10.44
2023-04-24T01:22:37.356Z,10.43
2023-04-24T01:23:37.326Z,10.40
2023-04-24T01:24:37.316Z,10.40
2023-04-24T01:25:37.305Z,10.43
2023-04-24T01:26:37.290Z,10.42
2023-04-24T01:27:37.282Z,10.46
2023-04-24T01:28:37.271Z,10.46
2023-04-24T01:29:37.260Z,10.47
2023-04-24T01:30:37.248Z,10.51
2023-04-24T01:31:37.257Z,10.46
2023-04-24T01:32:37.303Z,10.42
2023-04-24T01:33:37.195Z,10.42
2023-04-24T01:34:37.203Z,10.42
2023-04-24T01:35:37.192Z,10.40
2023-04-24T01:36:37.189Z,10.42
2023-04-24T01:37:37.145Z,10.40
2023-04-24T01:38:37.130Z,10.39
2023-04-24T01:39:37.123Z,10.39
2023-04-24T01:40:37.122Z,10.39
2023-04-24T01:41:37.107Z,10.43
2023-04-24T01:42:37.064Z,10.51
2023-04-24T01:43:37.076Z,10.51
2023-04-24T01:44:37.065Z,10.52
2023-04-24T01:45:37.084Z,10.53
2023-04-24T01:46:37.091Z,10.51
2023-04-24T01:47:37.076Z,10.47
2023-04-24T01:48:37.011Z,10.44
2023-04-24T01:49:36.999Z,10.44
2023-04-24T01:50:36.981Z,10.46
2023-04-24T01:51:36.958Z,10.46
2023-04-24T01:52:37.021Z,10.44
2023-04-24T01:53:36.949Z,10.43
2023-04-24T01:54:36.933Z,10.42
2023-04-24T01:55:36.908Z,10.42
2023-04-24T01:56:36.924Z,10.43
2023-04-24T01:57:36.898Z,10.43
2023-04-24T01:58:36.882Z,10.43
2023-04-24T01:59:36.859Z,10.44
2023-04-24T02:00:36.886Z,10.44
2023-04-24T02:01:36.844Z,10.42
2023-04-24T02:02:36.981Z,10.42
2023-04-24T02:03:37.054Z,10.44
2023-04-24T02:04:36.791Z,10.44
2023-04-24T02:05:36.772Z,10.39
2023-04-24T02:06:36.786Z,10.37
2023-04-24T02:07:36.765Z,10.37
2023-04-24T02:08:36.743Z,10.39
2023-04-24T02:09:36.738Z,10.40
2023-04-24T02:10:36.710Z,10.36
2023-04-24T02:11:36.702Z,10.36
2023-04-24T02:12:36.707Z,10.36
2023-04-24T02:13:36.673Z,10.39
2023-04-24T02:14:36.666Z,10.36
2023-04-24T02:15:36.659Z,10.37
2023-04-24T02:16:36.646Z,10.37
2023-04-24T02:17:36.678Z,10.37
2023-04-24T02:18:36.601Z,10.39
2023-04-24T02:19:36.590Z,10.36
2023-04-24T02:20:36.572Z,10.36
2023-04-24T02:21:36.589Z,10.34
2023-04-24T02:22:36.559Z,10.33
2023-04-24T02:23:36.550Z,10.33
2023-04-24T02:24:36.539Z,10.30
2023-04-24T02:25:36.521Z,10.28
2023-04-24T02:26:36.503Z,10.25
2023-04-24T02:27:36.501Z,10.25
2023-04-24T02:28:36.476Z,10.25
2023-04-24T02:29:36.465Z,10.24
2023-04-24T02:30:36.456Z,10.22
2023-04-24T02:31:36.482Z,10.21
2023-04-24T02:32:36.427Z,10.19
2023-04-24T02:33:36.427Z,10.17
2023-04-24T02:34:36.397Z,10.14
2023-04-24T02:35:36.423Z,10.14
2023-04-24T02:36:36.392Z,10.10
2023-04-24T02:37:36.364Z,10.12
2023-04-24T02:38:36.343Z,10.10
2023-04-24T02:39:36.358Z,10.10
2023-04-24T02:40:36.350Z,10.12
2023-04-24T02:41:36.305Z,10.14
2023-04-24T02:42:36.330Z,10.14
2023-04-24T02:43:36.269Z,10.12
2023-04-24T02:44:36.289Z,10.12
2023-04-24T02:45:36.275Z,10.06
2023-04-24T02:46:36.249Z,10.07
2023-04-24T02:47:36.283Z,10.10
2023-04-24T02:48:36.217Z,10.10
2023-04-24T02:49:36.191Z,10.10
2023-04-24T02:50:36.202Z,10.10
2023-04-24T02:51:36.173Z,10.12
2023-04-24T02:52:36.182Z,10.10
2023-04-24T02:53:36.157Z,10.12
2023-04-24T02:54:36.157Z,10.10
2023-04-24T02:55:36.120Z,10.10
2023-04-24T02:56:36.108Z,10.14
2023-04-24T02:57:36.115Z,10.15
2023-04-24T02:58:36.086Z,10.18
2023-04-24T02:59:36.063Z,10.21
2023-04-24T03:00:36.054Z,10.21
2023-04-24T03:01:36.064Z,10.22
2023-04-24T03:02:36.178Z,10.22
2023-04-24T03:03:36.116Z,10.19
2023-04-24T03:04:36.269Z,10.19
2023-04-24T03:05:35.985Z,10.21
2023-04-24T03:06:35.979Z,10.19
2023-04-24T03:07:35.985Z,10.17
2023-04-24T03:08:35.962Z,10.17
2023-04-24T03:09:35.931Z,10.17
2023-04-24T03:10:35.934Z,10.15
2023-04-24T03:11:35.930Z,10.17
2023-04-24T03:12:35.910Z,10.17
2023-04-24T03:13:35.876Z,10.17
2023-04-24T03:14:35.905Z,10.17
2023-04-24T03:15:35.855Z,10.18
2023-04-24T03:16:35.904Z,10.17
2023-04-24T03:17:35.856Z,10.18
2023-04-24T03:18:35.834Z,10.19
2023-04-24T03:19:35.791Z,10.21
2023-04-24T03:20:35.794Z,10.19
2023-04-24T03:21:35.778Z,10.19
2023-04-24T03:22:35.777Z,10.17
2023-04-24T03:23:35.760Z,10.18
2023-04-24T03:24:35.746Z,10.17
2023-04-24T03:25:35.732Z,10.17
2023-04-24T03:26:35.718Z,10.17
2023-04-24T03:27:35.709Z,10.15
2023-04-24T03:28:35.705Z,10.17
2023-04-24T03:29:35.679Z,10.18
2023-04-24T03:30:35.685Z,10.17
2023-04-24T03:31:35.749Z,10.17
2023-04-24T03:32:35.700Z,10.15
2023-04-24T03:33:35.633Z,10.15
2023-04-24T03:34:35.619Z,10.15
2023-04-24T03:35:35.617Z,10.17
2023-04-24T03:36:35.587Z,10.15
2023-04-24T03:37:35.571Z,10.15
2023-04-24T03:38:35.574Z,10.17
2023-04-24T03:39:35.542Z,10.15
2023-04-24T03:40:35.566Z,10.15
2023-04-24T03:41:35.518Z,10.15
2023-04-24T03:42:36.766Z,10.10
2023-04-24T03:43:35.533Z,10.09
2023-04-24T03:44:35.500Z,10.07
2023-04-24T03:45:35.467Z,10.06
2023-04-24T03:46:35.482Z,10.04
2023-04-24T03:47:35.536Z,10.03
2023-04-24T03:48:35.453Z,10.01
2023-04-24T04:02:06.924Z,9.94
2023-04-24T04:03:07.141Z,9.94
2023-04-24T04:04:06.954Z,9.94
2023-04-24T04:05:06.953Z,9.94
2023-04-24T04:06:06.789Z,9.97
2023-04-24T04:07:06.764Z,9.96
2023-04-24T04:08:06.777Z,9.94
2023-04-24T04:09:06.751Z,9.96
2023-04-24T04:10:06.745Z,9.94
2023-04-24T04:11:06.711Z,9.93
2023-04-24T04:12:06.869Z,9.91
2023-04-24T04:13:06.705Z,9.91
2023-04-24T04:14:06.692Z,9.88
2023-04-24T04:15:06.672Z,9.88
2023-04-24T04:16:06.683Z,9.88
2023-04-24T04:17:06.648Z,9.89
2023-04-24T04:18:06.665Z,9.89
2023-04-24T04:19:06.674Z,9.91
2023-04-24T04:20:06.632Z,9.93
2023-04-24T04:21:06.604Z,9.96
2023-04-24T04:22:06.580Z,9.97
2023-04-24T04:23:06.581Z,9.96
2023-04-24T04:24:06.563Z,9.96
2023-04-24T04:25:06.554Z,9.94
2023-04-24T04:26:06.536Z,9.96
2023-04-24T04:27:06.540Z,9.96
2023-04-24T04:28:06.510Z,9.96
2023-04-24T04:29:06.494Z,9.99
2023-04-24T04:30:06.485Z,10.00
2023-04-24T04:31:06.450Z,9.96
2023-04-24T04:32:06.543Z,9.96
2023-04-24T04:33:06.490Z,10.01
2023-04-24T04:34:06.427Z,10.03
2023-04-24T04:35:06.427Z,10.03
2023-04-24T04:36:06.403Z,10.01
2023-04-24T04:37:06.373Z,10.01
2023-04-24T04:38:06.379Z,9.99
2023-04-24T04:39:06.367Z,9.99
2023-04-24T04:40:06.356Z,9.96
2023-04-24T04:41:06.342Z,9.99
2023-04-24T04:42:06.329Z,10.00
2023-04-24T04:43:06.328Z,10.03
2023-04-24T04:44:06.326Z,10.00
2023-04-24T04:45:06.305Z,10.00
2023-04-24T04:46:06.329Z,10.03
2023-04-24T04:47:06.260Z,10.03
2023-04-24T04:48:06.256Z,10.03
2023-04-24T04:49:06.243Z,10.03
2023-04-24T04:50:06.219Z,10.03
2023-04-24T04:51:06.200Z,10.03
2023-04-24T04:52:06.202Z,10.03
2023-04-24T04:53:06.184Z,10.01
2023-04-24T04:54:06.172Z,10.03
2023-04-24T04:55:06.172Z,10.00
2023-04-24T04:56:06.160Z,10.03
2023-04-24T04:57:06.133Z,10.04
2023-04-24T04:58:06.163Z,10.06
2023-04-24T04:59:06.109Z,10.09
2023-04-24T05:00:06.100Z,10.09
2023-04-24T05:01:06.109Z,10.10
2023-04-24T05:02:06.136Z,10.12
2023-04-24T05:03:19.788Z,10.12
2023-04-24T05:04:07.299Z,10.12
2023-04-24T05:05:06.275Z,10.12
2023-04-24T05:06:06.013Z,10.14
2023-04-24T05:07:05.998Z,10.15
2023-04-24T05:08:08.932Z,10.18
2023-04-24T05:09:06.986Z,10.19
2023-04-24T05:10:06.001Z,10.21
2023-04-24T05:11:06.005Z,10.22
2023-04-24T05:12:05.954Z,10.25
2023-04-24T05:13:05.995Z,10.26
2023-04-24T05:14:05.936Z,10.30
2023-04-24T05:15:05.907Z,10.32
2023-04-24T05:16:05.896Z,10.34
2023-04-24T05:17:05.939Z,10.37
2023-04-24T05:18:05.917Z,10.42
2023-04-24T05:19:05.871Z,10.39
2023-04-24T05:20:05.860Z,10.40
2023-04-24T05:21:05.825Z,10.42
2023-04-24T05:22:05.824Z,10.39
2023-04-24T05:23:05.802Z,10.37
2023-04-24T05:24:05.801Z,10.37
2023-04-24T05:25:05.792Z,10.42
2023-04-24T05:26:07.537Z,10.39
2023-04-24T05:27:05.737Z,10.42
2023-04-24T05:28:05.737Z,10.44
2023-04-24T05:29:05.720Z,10.51
2023-04-24T05:30:05.723Z,10.51
2023-04-24T05:31:05.743Z,10.52
2023-04-24T05:32:05.691Z,10.51
2023-04-24T05:33:05.704Z,10.51
2023-04-24T05:34:05.657Z,10.51
2023-04-24T05:35:05.664Z,10.52
2023-04-24T05:36:05.629Z,10.51
2023-04-24T05:37:05.627Z,10.55
2023-04-24T05:38:05.602Z,10.56
2023-04-24T05:39:07.519Z,10.56
2023-04-24T05:40:05.580Z,10.58
2023-04-24T05:41:05.559Z,10.62
2023-04-24T05:42:05.563Z,10.66
2023-04-24T05:43:05.565Z,10.66
2023-04-24T05:44:05.545Z,10.71
2023-04-24T05:45:05.533Z,10.73
2023-04-24T05:46:05.521Z,10.74
2023-04-24T05:47:05.495Z,10.71
2023-04-24T05:48:05.545Z,10.74
2023-04-24T05:49:05.461Z,10.78
2023-04-24T05:50:05.468Z,10.78
2023-04-24T05:51:05.442Z,10.78
2023-04-24T05:52:05.438Z,10.80
2023-04-24T05:53:05.414Z,10.78
2023-04-24T05:54:05.405Z,10.81
2023-04-24T05:55:05.400Z,10.84
2023-04-24T05:56:05.378Z,10.91
2023-04-24T05:57:05.356Z,10.94
2023-04-24T05:58:05.359Z,10.94
2023-04-24T05:59:05.320Z,10.94
2023-04-24T06:00:05.344Z,10.96
2023-04-24T06:01:05.310Z,10.95
2023-04-24T06:02:05.319Z,10.99
2023-04-24T06:03:05.474Z,10.95
2023-04-24T06:04:05.435Z,10.98
2023-04-24T06:05:05.467Z,10.99
2023-04-24T06:06:05.243Z,11.02
2023-04-24T06:07:05.242Z,11.06
2023-04-24T06:08:05.232Z,11.02
2023-04-24T06:09:05.215Z,11.01
2023-04-24T06:10:05.233Z,11.03
2023-04-24T06:11:05.178Z,11.07
2023-04-24T06:12:05.168Z,11.06
2023-04-24T06:13:05.159Z,11.09
2023-04-24T06:14:05.162Z,11.10
2023-04-24T06:15:05.134Z,11.13
2023-04-24T06:16:05.149Z,11.19
2023-04-24T06:17:05.097Z,11.21
2023-04-24T06:18:05.155Z,11.21
2023-04-24T06:19:05.100Z,11.24
2023-04-24T06:20:05.071Z,11.27
2023-04-24T06:21:05.063Z,11.28
2023-04-24T06:22:05.033Z,11.24
2023-04-24T06:23:05.045Z,11.20
2023-04-24T06:24:05.044Z,11.13
2023-04-24T06:25:04.996Z,11.16
2023-04-24T06:26:04.982Z,11.19
2023-04-24T06:27:04.977Z,11.19
2023-04-24T06:28:04.982Z,11.24
2023-04-24T06:29:04.957Z,11.24
2023-04-24T06:30:04.943Z,11.27
2023-04-24T06:31:04.913Z,11.24
2023-04-24T06:32:04.963Z,11.24
2023-04-24T06:33:16.845Z,11.24
2023-04-24T06:34:05.892Z,11.20
2023-04-24T06:35:04.894Z,11.21
2023-04-24T06:36:04.861Z,11.25
2023-04-24T06:37:04.861Z,11.28
2023-04-24T06:38:04.826Z,11.31
2023-04-24T06:39:04.838Z,11.31
2023-04-24T06:40:06.511Z,11.32
2023-04-24T06:41:04.787Z,11.36
2023-04-24T06:42:04.774Z,11.35
2023-04-24T06:43:04.776Z,11.32
2023-04-24T06:44:04.738Z,11.28
2023-04-24T06:45:04.795Z,11.28
2023-04-24T06:46:04.804Z,11.28
2023-04-24T06:47:04.723Z,11.25
2023-04-24T06:48:04.781Z,11.25
2023-04-24T06:49:04.693Z,11.16
2023-04-24T06:50:04.681Z,11.06
2023-04-24T06:51:04.665Z,11.03
2023-04-24T06:52:04.645Z,10.95
2023-04-24T06:53:04.632Z,10.92
2023-04-24T06:54:04.627Z,10.88
2023-04-24T06:55:04.616Z,10.88
2023-04-24T06:56:04.594Z,10.84
2023-04-24T06:57:04.700Z,10.84
2023-04-24T06:58:04.575Z,10.81
2023-04-24T06:59:04.562Z,10.86
2023-04-24T07:00:04.556Z,10.89
2023-04-24T07:01:04.564Z,10.94
2023-04-24T07:02:04.512Z,10.96
2023-04-24T07:03:04.657Z,11.01
2023-04-24T07:04:04.756Z,11.02
2023-04-24T07:05:04.509Z,11.01
2023-04-24T07:06:04.485Z,11.09
2023-04-24T07:07:04.471Z,11.14
2023-04-24T07:08:04.481Z,11.13
2023-04-24T07:09:04.457Z,11.16
2023-04-24T07:10:04.448Z,11.19
2023-04-24T07:11:04.420Z,11.25
2023-04-24T07:12:04.421Z,11.25
2023-04-24T07:13:04.375Z,11.28
2023-04-24T07:14:04.367Z,11.25
2023-04-24T07:15:04.361Z,11.25
2023-04-24T07:16:04.366Z,11.27
2023-04-24T07:17:04.330Z,11.31
2023-04-24T07:18:05.959Z,11.32
2023-04-24T07:19:04.306Z,11.39
2023-04-24T07:20:04.299Z,11.39
2023-04-24T07:21:04.271Z,11.38
2023-04-24T07:22:04.250Z,11.38
2023-04-24T07:23:04.264Z,11.44
2023-04-24T07:24:04.253Z,11.52
2023-04-24T07:25:04.227Z,11.54
2023-04-24T07:26:04.216Z,11.54
2023-04-24T07:27:04.282Z,11.62
2023-04-24T07:28:04.188Z,11.54
2023-04-24T07:29:04.386Z,11.52
2023-04-24T07:30:04.158Z,11.53
2023-04-24T07:31:04.275Z,11.59
2023-04-24T07:32:04.457Z,11.56
2023-04-24T07:33:04.158Z,11.52
2023-04-24T07:34:04.121Z,11.49
2023-04-24T07:35:04.095Z,11.39
2023-04-24T07:36:04.098Z,11.34
2023-04-24T07:37:04.066Z,11.31
2023-04-24T07:38:04.061Z,11.31
2023-04-24T07:39:04.044Z,11.34
2023-04-24T07:40:04.033Z,11.35
2023-04-24T07:41:04.035Z,11.35
2023-04-24T07:42:03.991Z,11.35
2023-04-24T07:43:04.049Z,11.38
2023-04-24T07:44:03.977Z,11.38
2023-04-24T07:45:03.958Z,11.35
2023-04-24T07:46:04.000Z,11.34
2023-04-24T07:47:03.929Z,11.32
2023-04-24T07:48:03.942Z,11.28
2023-04-24T07:49:13.152Z,11.27
2023-04-24T07:50:04.916Z,11.27
2023-04-24T07:51:03.917Z,11.24
2023-04-24T07:52:03.886Z,11.24
2023-04-24T07:53:03.870Z,11.21
2023-04-24T07:54:03.845Z,11.25
2023-04-24T07:55:03.836Z,11.25
2023-04-24T07:56:03.836Z,11.31
2023-04-24T07:57:03.806Z,11.32
2023-04-24T07:58:03.799Z,11.32
2023-04-24T07:59:03.867Z,11.31
2023-04-24T08:00:03.757Z,11.38
2023-04-24T08:01:03.765Z,11.38
2023-04-24T08:02:03.730Z,11.46
2023-04-24T08:03:03.779Z,11.47
2023-04-24T08:04:03.918Z,11.41
2023-04-24T08:05:03.884Z,11.47
2023-04-24T08:06:03.887Z,11.53
2023-04-24T08:07:03.679Z,11.54
2023-04-24T08:08:03.684Z,11.52
2023-04-24T08:09:03.668Z,11.50
2023-04-24T08:10:03.672Z,11.47
2023-04-24T08:11:03.640Z,11.50
2023-04-24T08:12:03.685Z,11.50
2023-04-24T08:13:03.603Z,11.50
2023-04-24T08:14:03.589Z,11.52
2023-04-24T08:15:03.613Z,11.53
2023-04-24T08:16:03.606Z,11.59
2023-04-24T08:17:03.567Z,11.64
2023-04-24T08:18:03.560Z,11.71
2023-04-24T08:19:03.521Z,11.75
2023-04-24T08:20:03.502Z,11.77
2023-04-24T08:21:03.520Z,11.83
2023-04-24T08:22:03.464Z,11.85
2023-04-24T08:23:03.481Z,11.93
2023-04-24T08:24:03.453Z,11.89
2023-04-24T08:25:03.440Z,11.87
2023-04-24T08:26:03.440Z,11.78
2023-04-24T08:27:03.429Z,11.75
2023-04-24T08:28:03.404Z,11.82
2023-04-24T08:29:03.409Z,11.89
2023-04-24T08:30:03.420Z,11.94
2023-04-24T08:31:03.379Z,11.96
2023-04-24T08:32:03.417Z,11.96
2023-04-24T08:33:03.404Z,11.99
2023-04-24T08:34:03.323Z,12.06
2023-04-24T08:35:03.349Z,12.04
2023-04-24T08:36:03.300Z,12.09
2023-04-24T08:37:03.295Z,12.11
2023-04-24T08:38:03.264Z,12.05
2023-04-24T08:39:03.259Z,11.96
2023-04-24T08:40:03.247Z,11.85
2023-04-24T08:41:03.231Z,11.77
2023-04-24T08:42:03.223Z,11.80
2023-04-24T08:43:03.216Z,11.78
2023-04-24T08:44:03.195Z,11.83
2023-04-24T08:45:03.209Z,11.89
2023-04-24T08:46:06.058Z,11.97
2023-04-24T08:47:04.160Z,11.90
2023-04-24T08:48:03.162Z,11.90
2023-04-24T08:49:03.140Z,11.99
2023-04-24T08:50:03.134Z,12.12
2023-04-24T08:51:03.112Z,12.27
2023-04-24T08:52:03.098Z,12.38
2023-04-24T08:53:05.066Z,12.44
2023-04-24T08:54:03.073Z,12.44
2023-04-24T08:55:03.047Z,12.42
2023-04-24T08:56:03.048Z,12.45
2023-04-24T08:57:03.036Z,12.49
2023-04-24T08:58:03.041Z,12.51
2023-04-24T08:59:03.004Z,12.49
2023-04-24T09:00:02.990Z,12.48
2023-04-24T09:01:03.041Z,12.45
2023-04-24T09:02:02.961Z,12.48
2023-04-24T09:03:03.066Z,12.48
2023-04-24T09:04:03.056Z,12.51
2023-04-24T09:05:02.953Z,12.57
2023-04-24T09:06:02.932Z,12.64
2023-04-24T09:07:02.922Z,12.64
2023-04-24T09:08:02.916Z,12.67
2023-04-24T09:09:02.892Z,12.67
2023-04-24T09:10:02.858Z,12.67
2023-04-24T09:11:02.860Z,12.57
2023-04-24T09:12:02.847Z,12.54
2023-04-24T09:13:02.831Z,12.57
2023-04-24T09:14:02.816Z,12.54
2023-04-24T09:15:02.811Z,12.45
2023-04-24T09:16:02.790Z,12.48
2023-04-24T09:17:02.797Z,12.37
2023-04-24T09:18:02.807Z,12.34
2023-04-24T09:19:02.753Z,12.37
2023-04-24T09:20:02.735Z,12.37
2023-04-24T09:21:02.778Z,12.34
2023-04-24T09:22:02.790Z,12.34
2023-04-24T09:23:02.727Z,12.37
2023-04-24T09:24:02.711Z,12.39
2023-04-24T09:25:02.687Z,12.48
2023-04-24T09:26:02.725Z,12.57
2023-04-24T09:27:02.654Z,12.64
2023-04-24T09:28:02.635Z,12.78
2023-04-24T09:29:02.623Z,12.96
2023-04-24T09:30:02.622Z,13.03
2023-04-24T09:31:02.594Z,13.14
2023-04-24T09:32:02.713Z,13.18
2023-04-24T09:33:02.653Z,13.21
2023-04-24T09:34:03.281Z,13.21
2023-04-24T09:35:02.552Z,13.17
2023-04-24T09:36:02.526Z,12.97
2023-04-24T09:37:02.516Z,12.85
2023-04-24T09:38:02.500Z,12.74
2023-04-24T09:39:02.494Z,12.64
2023-04-24T09:40:02.487Z,12.59
2023-04-24T09:41:02.479Z,12.57
2023-04-24T09:42:02.450Z,12.51
2023-04-24T09:43:02.442Z,12.46
2023-04-24T09:44:02.428Z,12.38
2023-04-24T09:45:08.317Z,12.37
2023-04-24T09:46:03.425Z,12.34
2023-04-24T10:02:19.555Z,13.14
2023-04-24T10:03:19.706Z,13.12
2023-04-24T10:04:19.478Z,13.09
2023-04-24T10:05:19.435Z,13.12
2023-04-24T10:06:19.421Z,12.99
2023-04-24T10:07:19.411Z,12.99
2023-04-24T10:08:19.409Z,13.03
2023-04-24T10:09:19.386Z,13.09
2023-04-24T10:10:19.368Z,13.11
2023-04-24T10:11:19.378Z,13.15
2023-04-24T10:12:19.340Z,13.20
2023-04-24T10:13:19.340Z,13.25
2023-04-24T10:14:19.322Z,13.21
2023-04-24T10:15:19.304Z,13.15
2023-04-24T10:16:26.415Z,13.14
2023-04-24T10:17:19.433Z,13.12
2023-04-24T10:18:19.271Z,13.20
2023-04-24T10:19:19.242Z,13.24
2023-04-24T10:20:19.234Z,13.33
2023-04-24T10:21:19.236Z,13.41
2023-04-24T10:22:19.212Z,13.47
2023-04-24T10:23:19.207Z,13.44
2023-04-24T10:24:19.179Z,13.40
2023-04-24T10:25:19.176Z,13.52
2023-04-24T10:26:19.147Z,13.71
2023-04-24T10:27:19.158Z,13.91
2023-04-24T10:28:19.125Z,14.10
2023-04-24T10:29:19.122Z,14.20
2023-04-24T10:30:19.111Z,14.29
2023-04-24T10:31:19.130Z,14.27
2023-04-24T10:32:19.092Z,14.38
2023-04-24T10:33:19.070Z,14.49
2023-04-24T10:34:19.066Z,14.60
2023-04-24T10:35:19.042Z,14.69
2023-04-24T10:36:19.022Z,14.84
2023-04-24T10:37:19.031Z,14.68
2023-04-24T10:38:18.999Z,14.78
2023-04-24T10:39:18.992Z,14.90
2023-04-24T10:40:18.975Z,14.88
2023-04-24T10:41:18.966Z,14.95
2023-04-24T10:42:18.958Z,15.09
2023-04-24T10:43:18.954Z,15.30
2023-04-24T10:44:18.921Z,15.19
2023-04-24T10:45:18.906Z,15.31
2023-04-24T10:46:18.913Z,15.51
2023-04-24T10:47:18.892Z,15.42
2023-04-24T10:48:18.932Z,15.38
2023-04-24T10:49:18.846Z,15.27
2023-04-24T10:50:18.837Z,15.20
2023-04-24T10:51:18.819Z,15.08
2023-04-24T10:52:18.826Z,14.84
2023-04-24T10:53:18.831Z,14.57
2023-04-24T10:54:18.782Z,14.27
2023-04-24T10:55:18.794Z,14.04
2023-04-24T10:56:18.758Z,13.81
2023-04-24T10:57:18.756Z,13.52
2023-04-24T10:58:18.763Z,13.41
2023-04-24T10:59:18.715Z,13.22
2023-04-24T11:00:18.705Z,13.07
2023-04-24T11:01:18.745Z,13.06
2023-04-24T11:02:18.731Z,12.95
2023-04-24T11:03:18.861Z,12.92
2023-04-24T11:04:18.765Z,12.89
2023-04-24T11:05:18.672Z,12.84
2023-04-24T11:06:18.627Z,12.70
2023-04-24T11:07:18.632Z,12.69
2023-04-24T11:08:18.600Z,12.70
2023-04-24T11:09:18.596Z,12.62
2023-04-24T11:10:18.569Z,12.54
2023-04-24T11:11:18.559Z,12.48
2023-04-24T11:12:18.560Z,12.45
2023-04-24T11:13:18.551Z,12.44
2023-04-24T11:14:18.511Z,12.46
2023-04-24T11:15:18.551Z,12.51
2023-04-24T11:16:18.547Z,12.57
2023-04-24T11:17:18.501Z,12.67
2023-04-24T11:18:18.467Z,12.78
2023-04-24T11:19:18.455Z,12.77
2023-04-24T11:20:27.606Z,12.77
2023-04-24T11:21:19.428Z,12.78
2023-04-24T11:22:18.410Z,12.84
2023-04-24T11:23:18.411Z,12.93
2023-04-24T11:24:18.386Z,13.04
2023-04-24T11:25:18.379Z,13.06
2023-04-24T11:26:18.370Z,13.09
2023-04-24T11:27:18.347Z,13.20
2023-04-24T11:28:18.383Z,13.25
2023-04-24T11:29:20.348Z,13.32
2023-04-24T11:30:18.299Z,13.24
2023-04-24T11:31:18.319Z,13.17
2023-04-24T11:32:18.553Z,13.14
2023-04-24T11:33:18.300Z,13.11
2023-04-24T11:34:18.263Z,13.07
2023-04-24T11:35:18.264Z,13.03
2023-04-24T11:36:18.230Z,13.09
2023-04-24T11:37:18.230Z,13.17
2023-04-24T11:38:24.494Z,13.25
2023-04-24T11:39:19.209Z,13.18
2023-04-24T11:40:18.192Z,13.14
2023-04-24T11:41:18.172Z,13.32
2023-04-24T11:42:18.156Z,13.40
2023-04-24T11:43:18.148Z,13.47
2023-04-24T11:44:18.127Z,13.70
2023-04-24T11:45:18.120Z,13.88
2023-04-24T11:46:18.210Z,14.09
2023-04-24T11:47:18.161Z,14.25
2023-04-24T11:48:18.113Z,14.27
2023-04-24T11:49:18.087Z,14.17
2023-04-24T11:50:18.072Z,14.14
2023-04-24T11:51:18.034Z,14.04
2023-04-24T11:52:18.045Z,13.94
2023-04-24T11:53:18.027Z,13.87
2023-04-24T11:54:18.007Z,13.81
2023-04-24T11:55:18.023Z,13.81
2023-04-24T11:56:17.963Z,13.73
2023-04-24T11:57:17.963Z,13.69
2023-04-24T11:58:18.041Z,13.51
2023-04-24T11:59:17.944Z,13.36
2023-04-24T12:00:17.989Z,13.27
2023-04-24T12:01:17.923Z,13.24
2023-04-24T12:02:17.922Z,13.15
2023-04-24T12:03:18.003Z,13.04
2023-04-24T12:04:18.056Z,12.95
2023-04-24T12:05:18.107Z,12.95
2023-04-24T12:06:17.873Z,12.97
2023-04-24T12:07:17.831Z,12.97
2023-04-24T12:08:17.826Z,12.93
2023-04-24T12:09:18.666Z,12.89
2023-04-24T12:10:17.781Z,12.82
2023-04-24T12:11:17.786Z,12.82
2023-04-24T12:12:17.771Z,12.81
2023-04-24T12:13:17.777Z,12.87
2023-04-24T12:14:17.762Z,12.97
2023-04-24T12:15:17.738Z,12.97
2023-04-24T12:16:17.808Z,13.00
2023-04-24T12:17:17.703Z,13.09
2023-04-24T12:18:17.776Z,13.14
2023-04-24T12:19:17.680Z,13.12
2023-04-24T12:20:17.670Z,13.12
2023-04-24T12:21:18.741Z,13.20
2023-04-24T12:22:17.631Z,13.25
2023-04-24T12:23:17.632Z,13.41
2023-04-24T12:24:17.616Z,13.47
2023-04-24T12:25:17.612Z,13.52
2023-04-24T12:26:17.619Z,13.52
2023-04-24T12:27:17.582Z,13.49
2023-04-24T12:28:17.568Z,13.46
2023-04-24T12:29:17.556Z,13.38
2023-04-24T12:30:17.562Z,13.40
2023-04-24T12:31:17.547Z,13.29
2023-04-24T12:32:17.509Z,13.30
2023-04-24T12:33:17.519Z,13.27
2023-04-24T12:34:17.484Z,13.24
2023-04-24T12:35:17.480Z,13.17
2023-04-24T12:36:17.463Z,13.18
2023-04-24T12:37:17.456Z,13.18
2023-04-24T12:38:17.446Z,13.20
2023-04-24T12:39:17.415Z,13.24
2023-04-24T12:40:17.420Z,13.30
2023-04-24T12:41:17.400Z,13.25
2023-04-24T12:42:17.371Z,13.30
2023-04-24T12:43:17.461Z,13.33
2023-04-24T12:44:17.348Z,13.30
2023-04-24T12:45:17.334Z,13.36
2023-04-24T12:46:18.093Z,13.32
2023-04-24T12:47:17.350Z,13.37
2023-04-24T12:48:17.431Z,13.37
2023-04-24T12:49:17.313Z,13.27
2023-04-24T12:50:17.286Z,13.32
2023-04-24T12:51:17.271Z,13.29
2023-04-24T12:52:17.279Z,13.27
2023-04-24T12:53:17.242Z,13.25
2023-04-24T12:54:17.260Z,13.37
2023-04-24T12:55:17.226Z,13.25
2023-04-24T12:56:17.376Z,13.30
2023-04-24T12:57:17.202Z,13.43
2023-04-24T12:58:17.174Z,13.56
2023-04-24T12:59:17.182Z,13.56
2023-04-24T13:00:19.462Z,13.58
2023-04-24T13:01:17.213Z,13.59
2023-04-24T13:02:17.236Z,13.67
2023-04-24T13:03:17.335Z,13.73
2023-04-24T13:04:17.178Z,13.77
2023-04-24T13:05:17.089Z,13.84
2023-04-24T13:06:17.088Z,13.88
2023-04-24T13:07:17.061Z,13.81
2023-04-24T13:08:17.048Z,13.92
2023-04-24T13:09:17.044Z,13.96
2023-04-24T13:10:17.027Z,13.84
2023-04-24T13:11:17.035Z,13.91
2023-04-24T13:12:17.026Z,13.99
2023-04-24T13:13:16.997Z,13.99
2023-04-24T13:14:16.988Z,14.02
2023-04-24T13:15:16.974Z,14.16
2023-04-24T13:16:16.962Z,14.25
2023-04-24T13:17:17.037Z,14.37
2023-04-24T13:18:16.927Z,14.60
2023-04-24T13:19:16.914Z,14.60
2023-04-24T13:20:16.888Z,14.71
2023-04-24T13:21:16.911Z,14.62